Main page
METAR-TAF:

METAR-TAF

Airports :

Baghdad, Iraq

Baghdad International Airport

latitude: 33-15-45N, longitude: 44-14-04E, elevation: 35 m

Current weather observation

The report was made 18 minutes ago, at 07:00 UTC
Wind 6 kt from the West/Southwest, varying between Southwest and West
Temperature 22°C
Humidity 53%
Pressure 1011 hPa
Visibility 10 km or more

METAR: ORBI 230700Z 25006KT 220V280 9999 R33R/0500N NSC 22/12 Q1011 NOSIG

Time: 10:18 (07:18 UTC)

Forecast

The report was made 3 hours and 18 minutes ago, at 04:00 UTC
Forecast valid from 23 at 06 UTC to 24 at 06 UTC
Wind 8 kt from the Northwest
Visibility: 7000 m

TAF: ORBI 230400Z 2306/2406 32008KT 7000 NSC

Weather observations and forecasts of more than 4000 airports (METAR and TAF reports).

The available stations are represented by yellow and red dots on the map.

Hover mouse over dot to see the name of the station.

Then click to see weather observations and forecasts.

To change the map : click on the green buttons with a black cross to zoom in, on the green button with a dash to zoom out, or on the green arrows for adjacent maps.


METAR-TAF: